Time;durP1;ratioP1;P1;durP2;ratioP2;P2;SDS_P1;SDS_P2;PMS_P1;PMS_P2;Temp;Humidity;BMP_temperature;BMP_pressure;BME280_temperature;BME280_humidity;BME280_pressure;Samples;Min_cycle;Max_cycle;Signal;HPM_P1;HPM_P2
2023/05/06 00:00:14;;;;;;;7.03;6.43;;;10.90;99.90;;;;;;5044796;28;20041;-81
2023/05/06 00:02:45;;;;;;;7.53;5.93;;;11.00;99.90;;;;;;5060113;28;20095;-81
2023/05/06 00:05:11;;;;;;;6.22;5.57;;;11.10;99.90;;;;;;5043062;28;20076;-81
2023/05/06 00:07:37;;;;;;;33.70;4.55;;;11.10;99.90;;;;;;5041476;28;20068;-81
2023/05/06 00:10:03;;;;;;;195.45;9.80;;;11.10;99.90;;;;;;5047444;28;20063;-81
2023/05/06 00:12:29;;;;;;;38.13;6.28;;;10.90;99.90;;;;;;5045843;28;20048;-81
2023/05/06 00:14:55;;;;;;;5.53;5.10;;;10.80;99.90;;;;;;5043309;28;20052;-81
2023/05/06 00:17:20;;;;;;;9.20;6.40;;;10.90;99.90;;;;;;5043607;28;20044;-81
2023/05/06 00:19:46;;;;;;;10.48;5.93;;;10.80;99.90;;;;;;5045034;28;20045;-81
2023/05/06 00:22:11;;;;;;;10.10;7.00;;;10.80;99.90;;;;;;5044896;28;20120;-81
2023/05/06 00:24:37;;;;;;;10.05;7.05;;;10.80;99.90;;;;;;5044255;28;20072;-81
2023/05/06 00:27:02;;;;;;;11.27;5.72;;;10.70;99.90;;;;;;5059746;28;20048;-81
2023/05/06 00:29:28;;;;;;;34.53;8.45;;;10.70;99.90;;;;;;5063239;28;20124;-81
2023/05/06 00:31:54;;;;;;;6.97;5.80;;;10.70;99.90;;;;;;5046752;28;20072;-81
2023/05/06 00:34:19;;;;;;;12.57;5.80;;;10.60;99.90;;;;;;5042943;28;20133;-81
2023/05/06 00:36:45;;;;;;;64.03;7.63;;;10.60;99.90;;;;;;5059781;28;20116;-80
2023/05/06 00:39:10;;;;;;;79.07;9.20;;;10.60;99.90;;;;;;5046750;28;20029;-81
2023/05/06 00:41:36;;;;;;;7.55;5.07;;;10.60;99.90;;;;;;5045408;28;20033;-81
2023/05/06 00:44:01;;;;;;;7.95;4.32;;;10.50;99.90;;;;;;5078691;28;20025;-81
2023/05/06 00:46:27;;;;;;;5.35;4.95;;;10.50;99.90;;;;;;5046162;28;20052;-81
2023/05/06 00:48:54;;;;;;;5.35;4.85;;;10.40;99.90;;;;;;5045761;28;20041;-82
2023/05/06 00:51:20;;;;;;;4.97;4.18;;;10.30;99.90;;;;;;5049717;28;20081;-81
2023/05/06 00:53:45;;;;;;;5.80;3.97;;;10.40;99.90;;;;;;5045079;28;20038;-83
2023/05/06 00:56:12;;;;;;;4.30;4.00;;;10.40;99.90;;;;;;5035381;28;20095;-83
2023/05/06 00:58:37;;;;;;;6.97;4.18;;;10.40;99.90;;;;;;5030645;28;20064;-83
2023/05/06 01:01:03;;;;;;;9.55;6.28;;;10.40;99.90;;;;;;5082596;28;20634;-83
2023/05/06 01:03:30;;;;;;;7.93;6.13;;;10.40;99.90;;;;;;5086707;28;20037;-83
2023/05/06 01:06:08;;;;;;;7.95;4.80;;;10.50;99.90;;;;;;5037354;28;20061;-83
2023/05/06 01:08:50;;;;;;;4.65;4.22;;;10.50;99.90;;;;;;5036897;28;20570;-83
2023/05/06 01:11:38;;;;;;;5.22;3.88;;;10.50;99.90;;;;;;5051334;28;20048;-83
2023/05/06 01:14:36;;;;;;;5.45;4.13;;;10.40;99.90;;;;;;5050545;28;20057;-83
2023/05/06 01:17:05;;;;;;;8.23;6.60;;;10.50;99.90;;;;;;5040192;28;20735;-83
2023/05/06 01:19:45;;;;;;;240.32;13.07;;;10.40;99.90;;;;;;5057959;28;20032;-83
2023/05/06 01:22:12;;;;;;;20.90;5.85;;;10.30;99.90;;;;;;5056965;28;20092;-83
2023/05/06 01:24:41;;;;;;;148.35;8.82;;;10.20;99.90;;;;;;5050340;28;20029;-82
2023/05/06 01:27:07;;;;;;;273.90;13.73;;;10.20;99.90;;;;;;5073508;28;20033;-83
2023/05/06 01:29:36;;;;;;;417.58;16.23;;;10.20;99.90;;;;;;5052625;28;20045;-83
2023/05/06 01:32:22;;;;;;;226.32;11.00;;;10.20;99.90;;;;;;5036497;28;20040;-83
2023/05/06 01:35:04;;;;;;;143.73;8.27;;;10.10;99.90;;;;;;5069071;28;20034;-82
2023/05/06 01:37:54;;;;;;;3.28;2.80;;;10.00;99.90;;;;;;5036780;28;20038;-83
2023/05/06 01:40:25;;;;;;;5.07;3.75;;;10.00;99.90;;;;;;5056499;28;20050;-82
2023/05/06 01:42:53;;;;;;;4.32;3.90;;;9.90;99.90;;;;;;5055723;28;20048;-83
2023/05/06 01:45:20;;;;;;;144.13;11.18;;;9.90;99.90;;;;;;5055675;28;20050;-82
2023/05/06 01:47:46;;;;;;;194.48;13.73;;;10.00;99.90;;;;;;5049042;28;20625;-82
2023/05/06 01:50:12;;;;;;;260.52;11.60;;;10.00;99.90;;;;;;5055238;28;20037;-82
2023/05/06 01:52:38;;;;;;;29.58;5.03;;;10.00;99.90;;;;;;5036930;28;20029;-82
2023/05/06 01:55:04;;;;;;;42.78;10.50;;;10.00;99.90;;;;;;5053870;28;20545;-82
2023/05/06 01:57:29;;;;;;;69.13;9.63;;;10.00;99.90;;;;;;5049484;28;20044;-83
2023/05/06 01:59:55;;;;;;;59.88;12.00;;;10.00;99.90;;;;;;5050037;28;20042;-83
2023/05/06 02:02:21;;;;;;;32.67;9.63;;;10.10;99.90;;;;;;5052603;28;20036;-83
2023/05/06 02:04:46;;;;;;;31.90;8.10;;;10.10;99.90;;;;;;5054892;28;20051;-82
2023/05/06 02:07:12;;;;;;;33.25;5.93;;;10.10;99.90;;;;;;5054832;28;20447;-82
2023/05/06 02:09:37;;;;;;;11.80;5.20;;;10.10;99.90;;;;;;5085777;28;20040;-83
2023/05/06 02:12:03;;;;;;;3.92;3.63;;;10.10;99.90;;;;;;5055686;28;20144;-82
2023/05/06 02:14:28;;;;;;;3.47;3.28;;;10.10;99.90;;;;;;5038355;28;20461;-82
2023/05/06 02:16:55;;;;;;;4.38;3.97;;;10.00;99.90;;;;;;5039412;28;20037;-83
2023/05/06 02:19:20;;;;;;;4.28;3.88;;;10.10;99.90;;;;;;5055517;28;20041;-83
2023/05/06 02:21:46;;;;;;;6.28;4.50;;;10.10;99.90;;;;;;5052793;28;20037;-83
2023/05/06 02:24:11;;;;;;;3.33;3.13;;;10.10;99.90;;;;;;5040653;28;20048;-83
2023/05/06 02:26:37;;;;;;;3.47;3.17;;;10.10;99.90;;;;;;5048467;28;20043;-82
2023/05/06 02:29:02;;;;;;;4.90;3.45;;;10.10;99.90;;;;;;5085792;28;20182;-83
2023/05/06 02:31:28;;;;;;;11.15;10.02;;;10.00;99.90;;;;;;5052880;28;20040;-82
2023/05/06 02:33:53;;;;;;;123.47;10.98;;;10.10;99.90;;;;;;5051401;28;20037;-83
2023/05/06 02:36:19;;;;;;;12.10;8.40;;;10.10;99.90;;;;;;5052735;28;20033;-82
2023/05/06 02:38:44;;;;;;;10.45;9.00;;;10.00;99.90;;;;;;5054406;28;20042;-83
2023/05/06 02:41:10;;;;;;;9.70;8.85;;;10.10;99.90;;;;;;5038057;28;20067;-82
2023/05/06 02:43:36;;;;;;;8.25;7.55;;;10.10;99.90;;;;;;5087315;28;20116;-82
2023/05/06 02:46:01;;;;;;;9.02;8.23;;;10.10;99.90;;;;;;5052149;28;20037;-82
2023/05/06 02:48:27;;;;;;;8.77;7.88;;;10.10;99.90;;;;;;5053568;28;20104;-82
2023/05/06 02:50:52;;;;;;;9.88;8.50;;;10.10;99.90;;;;;;5050623;28;20135;-82
2023/05/06 02:53:18;;;;;;;8.77;7.97;;;10.10;99.90;;;;;;5052920;28;20085;-83
2023/05/06 02:55:43;;;;;;;11.60;9.55;;;10.10;99.90;;;;;;5070884;28;20164;-83
2023/05/06 02:58:09;;;;;;;12.85;11.35;;;10.20;99.90;;;;;;5030866;28;20044;-83
2023/05/06 03:00:35;;;;;;;15.27;12.52;;;10.20;99.90;;;;;;5053735;28;20036;-83
2023/05/06 03:03:00;;;;;;;11.55;10.35;;;10.30;99.90;;;;;;5051244;28;20037;-83
2023/05/06 03:05:26;;;;;;;15.18;12.10;;;10.30;99.90;;;;;;5052352;28;20164;-83
2023/05/06 03:07:51;;;;;;;10.18;9.10;;;10.30;99.90;;;;;;5053273;28;20064;-82
2023/05/06 03:10:17;;;;;;;7.00;5.07;;;10.30;99.90;;;;;;5052176;28;20032;-83
2023/05/06 03:12:43;;;;;;;16.55;10.48;;;10.20;99.90;;;;;;5050174;28;20045;-83
2023/05/06 03:15:08;;;;;;;13.48;11.30;;;10.10;99.90;;;;;;5085282;28;20902;-83
2023/05/06 03:17:34;;;;;;;14.00;11.32;;;10.20;99.90;;;;;;5050716;28;20041;-83
2023/05/06 03:20:00;;;;;;;12.98;11.30;;;10.30;99.90;;;;;;5052933;28;20029;-82
2023/05/06 03:22:26;;;;;;;12.10;10.00;;;10.30;99.90;;;;;;5051493;28;20033;-83
2023/05/06 03:24:51;;;;;;;14.00;11.00;;;10.30;99.90;;;;;;5050141;28;20104;-83
2023/05/06 03:27:17;;;;;;;12.85;11.10;;;10.30;99.90;;;;;;5049770;28;20105;-84
2023/05/06 03:29:42;;;;;;;12.40;10.63;;;10.20;99.90;;;;;;5053818;28;20049;-83
2023/05/06 03:32:08;;;;;;;11.82;10.55;;;10.20;99.90;;;;;;5052148;28;20044;-84
2023/05/06 03:34:33;;;;;;;11.90;10.77;;;10.20;99.90;;;;;;5052407;28;20044;-83
2023/05/06 03:36:59;;;;;;;13.23;11.38;;;10.20;99.90;;;;;;5082894;28;20040;-83
2023/05/06 03:39:24;;;;;;;14.02;12.15;;;10.20;99.90;;;;;;5038661;28;20097;-82
2023/05/06 03:41:50;;;;;;;14.43;11.70;;;10.20;99.90;;;;;;5032792;28;20115;-83
2023/05/06 03:44:15;;;;;;;15.65;13.35;;;10.20;99.90;;;;;;5052491;28;20141;-83
2023/05/06 03:46:41;;;;;;;16.13;11.98;;;10.20;99.90;;;;;;5050450;28;20057;-82
2023/05/06 03:49:07;;;;;;;17.38;11.43;;;10.20;99.90;;;;;;5084904;28;20064;-83
2023/05/06 03:51:34;;;;;;;12.90;11.18;;;10.20;99.90;;;;;;5049361;28;20093;-82
2023/05/06 03:54:00;;;;;;;21.23;10.82;;;10.20;99.90;;;;;;5051936;28;20051;-82
2023/05/06 03:56:27;;;;;;;22.75;11.95;;;10.20;99.90;;;;;;5048211;28;20045;-83
2023/05/06 03:58:55;;;;;;;19.35;11.55;;;10.10;99.90;;;;;;5051187;28;20041;-82
2023/05/06 04:01:20;;;;;;;9.98;8.95;;;10.20;99.90;;;;;;5050376;28;20119;-82
2023/05/06 04:03:46;;;;;;;14.88;9.45;;;10.10;99.90;;;;;;5066707;28;20523;-82
2023/05/06 04:06:12;;;;;;;13.75;9.18;;;10.00;99.90;;;;;;5054613;28;20115;-82
2023/05/06 04:08:37;;;;;;;12.27;9.02;;;10.00;99.90;;;;;;5034723;28;20123;-83
2023/05/06 04:11:07;;;;;;;12.63;9.32;;;9.90;99.90;;;;;;5053655;28;20041;-82
2023/05/06 04:13:33;;;;;;;18.10;11.95;;;10.00;99.90;;;;;;5065915;28;20041;-82
2023/05/06 04:15:59;;;;;;;15.75;12.55;;;10.00;99.90;;;;;;5081160;28;20052;-82
2023/05/06 04:18:24;;;;;;;15.70;13.07;;;10.00;99.90;;;;;;5035367;28;20040;-82
2023/05/06 04:20:50;;;;;;;14.10;12.55;;;10.00;99.90;;;;;;5051673;28;20099;-83
2023/05/06 04:23:16;;;;;;;20.45;12.90;;;10.20;99.90;;;;;;5045520;28;20041;-83
2023/05/06 04:25:43;;;;;;;18.95;11.80;;;10.40;99.90;;;;;;5050053;28;20041;-83
2023/05/06 04:28:10;;;;;;;17.80;10.77;;;10.60;99.90;;;;;;5033237;28;20051;-82
2023/05/06 04:30:36;;;;;;;11.43;6.53;;;10.80;99.90;;;;;;5053782;28;20040;-83
2023/05/06 04:33:02;;;;;;;9.85;8.20;;;10.90;99.90;;;;;;5053179;28;20116;-82
2023/05/06 04:35:28;;;;;;;11.85;10.35;;;11.10;99.90;;;;;;5029460;28;20037;-82
2023/05/06 04:37:55;;;;;;;17.15;10.07;;;11.20;99.90;;;;;;5049032;28;20049;-82
2023/05/06 04:40:22;;;;;;;11.85;9.35;;;11.50;99.90;;;;;;5047758;28;20476;-83
2023/05/06 04:42:47;;;;;;;12.40;8.55;;;11.80;99.90;;;;;;5081650;28;20065;-83
2023/05/06 04:45:15;;;;;;;15.52;8.30;;;12.10;99.90;;;;;;5048352;28;20037;-83
2023/05/06 04:47:41;;;;;;;13.00;7.63;;;12.30;99.90;;;;;;5033110;28;20336;-82
2023/05/06 04:50:07;;;;;;;9.18;8.30;;;12.50;99.90;;;;;;5049573;28;20040;-83
2023/05/06 04:52:33;;;;;;;15.13;6.95;;;12.60;99.90;;;;;;5082423;28;20041;-83
2023/05/06 04:54:59;;;;;;;10.23;7.25;;;12.80;99.90;;;;;;5035565;28;20059;-83
2023/05/06 04:57:24;;;;;;;10.60;6.85;;;13.00;99.90;;;;;;5056576;28;20048;-83
2023/05/06 04:59:50;;;;;;;7.70;6.75;;;13.40;99.90;;;;;;5055318;28;20055;-83
2023/05/06 05:02:15;;;;;;;8.07;7.35;;;13.40;99.90;;;;;;5056828;28;20086;-83
2023/05/06 05:04:41;;;;;;;8.00;7.30;;;13.60;99.90;;;;;;5051671;28;20041;-83
2023/05/06 05:07:07;;;;;;;8.82;8.00;;;13.80;99.90;;;;;;5053513;28;20047;-83
2023/05/06 05:09:34;;;;;;;8.43;7.72;;;14.10;99.90;;;;;;5056243;28;20062;-83
2023/05/06 05:12:03;;;;;;;8.25;7.45;;;14.30;99.90;;;;;;5054910;28;20075;-83
2023/05/06 05:14:28;;;;;;;8.35;7.55;;;14.50;99.90;;;;;;5070169;28;20865;-83
2023/05/06 05:16:54;;;;;;;8.25;7.38;;;15.00;99.90;;;;;;5055545;28;20045;-83
2023/05/06 05:19:20;;;;;;;8.13;7.32;;;14.80;99.90;;;;;;5041347;28;20888;-83
2023/05/06 05:21:46;;;;;;;8.80;7.20;;;14.50;99.90;;;;;;5056366;28;20036;-83
2023/05/06 05:24:11;;;;;;;7.18;6.53;;;14.00;99.90;;;;;;5051083;28;20033;-83
2023/05/06 05:26:37;;;;;;;7.57;6.63;;;13.70;99.90;;;;;;5056266;28;20044;-83
2023/05/06 05:29:02;;;;;;;7.15;6.57;;;13.70;99.90;;;;;;5041721;28;20049;-83
2023/05/06 05:31:30;;;;;;;6.65;6.05;;;13.70;99.90;;;;;;5055312;28;20049;-83
2023/05/06 05:33:55;;;;;;;8.07;6.75;;;13.50;99.90;;;;;;5057647;28;20080;-83
2023/05/06 05:36:22;;;;;;;6.30;5.60;;;13.60;99.90;;;;;;5056143;28;20067;-83
2023/05/06 05:38:47;;;;;;;7.40;6.70;;;13.60;99.90;;;;;;5053467;28;20041;-83
2023/05/06 05:41:13;;;;;;;7.45;6.57;;;13.50;99.90;;;;;;5040079;28;20384;-83
2023/05/06 05:43:39;;;;;;;7.15;6.45;;;13.20;99.90;;;;;;5054297;28;20033;-83
2023/05/06 05:46:04;;;;;;;9.38;7.63;;;13.00;99.90;;;;;;5054095;28;20043;-83
2023/05/06 05:48:31;;;;;;;10.68;6.95;;;12.80;99.90;;;;;;5047959;28;20112;-83
2023/05/06 05:50:57;;;;;;;10.20;6.65;;;12.80;99.90;;;;;;5053851;28;20048;-83
2023/05/06 05:53:23;;;;;;;15.88;7.20;;;12.90;99.90;;;;;;5054661;28;20037;-83
2023/05/06 05:55:48;;;;;;;6.93;6.32;;;13.00;99.90;;;;;;5055771;28;20418;-83
2023/05/06 05:58:14;;;;;;;6.32;5.82;;;13.40;99.90;;;;;;5058826;28;20029;-85
2023/05/06 06:00:39;;;;;;;6.65;6.05;;;13.80;99.90;;;;;;5052458;28;20519;-83
2023/05/06 06:03:05;;;;;;;5.82;5.35;;;14.20;99.90;;;;;;5054025;28;20025;-83
2023/05/06 06:05:31;;;;;;;5.60;5.05;;;15.00;99.90;;;;;;5078384;28;20495;-83
2023/05/06 06:07:57;;;;;;;5.93;5.43;;;16.10;99.90;;;;;;5053416;28;20040;-84
2023/05/06 06:10:23;;;;;;;5.88;5.45;;;16.30;99.90;;;;;;5053602;28;20041;-83
2023/05/06 06:12:48;;;;;;;6.50;5.43;;;16.00;99.90;;;;;;5053866;28;20155;-81
2023/05/06 06:15:14;;;;;;;9.68;6.35;;;15.90;99.90;;;;;;5077099;28;20045;-83
2023/05/06 06:17:40;;;;;;;7.97;5.40;;;15.80;99.90;;;;;;5053287;28;20074;-83
2023/05/06 06:20:07;;;;;;;6.13;5.53;;;15.80;99.90;;;;;;5087235;28;20048;-83
2023/05/06 06:22:32;;;;;;;7.75;5.88;;;15.60;99.90;;;;;;5061610;28;20047;-83
2023/05/06 06:24:58;;;;;;;7.05;6.30;;;15.50;99.90;;;;;;5055479;28;20088;-82
2023/05/06 06:27:23;;;;;;;6.85;6.25;;;15.40;99.90;;;;;;5048251;28;20977;-81
2023/05/06 06:29:49;;;;;;;7.82;7.13;;;15.30;99.90;;;;;;5048050;28;20048;-81
2023/05/06 06:32:15;;;;;;;8.30;7.22;;;15.20;99.90;;;;;;5080210;28;20042;-81
2023/05/06 06:34:40;;;;;;;7.97;7.20;;;15.10;99.90;;;;;;5051747;28;20052;-83
2023/05/06 06:37:09;;;;;;;7.95;7.32;;;15.10;99.90;;;;;;5053306;28;20060;-82
2023/05/06 06:39:34;;;;;;;8.57;7.68;;;14.90;99.90;;;;;;5048843;28;20060;-82
2023/05/06 06:42:03;;;;;;;9.38;8.48;;;14.90;99.90;;;;;;5037889;28;20103;-80
2023/05/06 06:44:29;;;;;;;9.80;8.85;;;14.60;99.90;;;;;;5039949;28;20034;-83
2023/05/06 06:47:00;;;;;;;11.48;9.32;;;14.40;99.90;;;;;;5058579;28;20025;-86
2023/05/06 06:49:26;;;;;;;9.82;8.90;;;14.20;99.90;;;;;;5056050;28;20087;-82
2023/05/06 06:51:52;;;;;;;9.75;8.85;;;14.10;99.90;;;;;;5044209;28;20052;-84
2023/05/06 06:54:17;;;;;;;9.25;8.35;;;14.00;99.90;;;;;;5054173;28;20037;-84
2023/05/06 06:56:43;;;;;;;11.65;10.45;;;14.00;99.90;;;;;;5051049;28;20045;-83
2023/05/06 06:59:09;;;;;;;10.57;9.55;;;13.90;99.90;;;;;;5046731;28;20086;-84
2023/05/06 07:01:34;;;;;;;10.27;9.18;;;13.90;99.90;;;;;;5037141;28;20037;-84
2023/05/06 07:04:00;;;;;;;9.75;8.85;;;13.90;99.90;;;;;;5050635;28;20037;-84
2023/05/06 07:06:25;;;;;;;11.65;10.18;;;13.90;99.90;;;;;;5045632;28;20120;-85
2023/05/06 07:08:51;;;;;;;10.70;9.70;;;14.00;99.90;;;;;;5033751;28;20037;-84
2023/05/06 07:11:16;;;;;;;13.80;10.27;;;14.00;99.90;;;;;;5050112;28;20032;-85
2023/05/06 07:13:42;;;;;;;10.82;9.75;;;14.00;99.90;;;;;;5049726;28;20489;-84
2023/05/06 07:16:08;;;;;;;9.80;8.90;;;14.00;99.90;;;;;;5035289;28;20029;-84
2023/05/06 07:18:33;;;;;;;10.23;9.23;;;14.00;99.90;;;;;;5030541;28;20446;-84
2023/05/06 07:20:59;;;;;;;11.18;10.10;;;13.80;99.90;;;;;;5031725;28;20116;-85
2023/05/06 07:23:24;;;;;;;9.88;8.88;;;13.80;99.90;;;;;;5052885;28;20037;-83
2023/05/06 07:25:50;;;;;;;11.20;8.98;;;14.10;99.90;;;;;;5074137;28;20045;-84
2023/05/06 07:28:15;;;;;;;8.52;7.72;;;14.20;99.90;;;;;;5042921;28;20130;-80
2023/05/06 07:30:43;;;;;;;8.40;7.70;;;14.60;99.90;;;;;;5049284;28;20056;-85
2023/05/06 07:33:09;;;;;;;8.57;7.68;;;15.10;99.90;;;;;;5031237;28;20282;-86
2023/05/06 07:39:34;;;;;;;7.68;7.00;;;16.10;99.90;;;;;;5058931;28;20049;-84
2023/05/06 07:42:28;;;;;;;9.23;6.35;;;16.60;99.90;;;;;;5050685;28;20037;-87
2023/05/06 07:45:29;;;;;;;5.55;4.95;;;16.90;99.90;;;;;;5066388;28;20075;-84
2023/05/06 07:47:56;;;;;;;6.88;5.53;;;17.20;99.90;;;;;;5060883;28;20394;-86
2023/05/06 07:50:22;;;;;;;5.65;5.18;;;17.50;99.90;;;;;;5064559;28;20044;-86
2023/05/06 07:52:47;;;;;;;6.90;5.90;;;18.40;99.90;;;;;;5052180;28;20452;-84
2023/05/06 07:55:22;;;;;;;6.65;5.97;;;18.40;99.90;;;;;;5051974;28;20033;-84
2023/05/06 07:57:48;;;;;;;6.78;6.18;;;18.50;99.90;;;;;;5029025;28;20074;-83
2023/05/06 08:00:14;;;;;;;8.80;6.80;;;18.60;99.90;;;;;;5042628;28;20037;-84
2023/05/06 08:02:43;;;;;;;8.65;6.47;;;18.70;99.90;;;;;;5050284;28;20412;-84
2023/05/06 08:05:09;;;;;;;6.10;5.60;;;18.80;99.90;;;;;;5028464;28;20033;-83
2023/05/06 08:07:35;;;;;;;5.72;5.22;;;18.60;99.90;;;;;;5048343;28;20045;-83
2023/05/06 08:10:02;;;;;;;5.28;4.82;;;18.90;99.90;;;;;;5030804;28;20080;-84
2023/05/06 08:12:27;;;;;;;5.03;4.53;;;19.00;99.90;;;;;;5049940;28;20064;-84
2023/05/06 08:14:54;;;;;;;5.20;4.72;;;19.40;99.90;;;;;;5047070;28;20464;-84
2023/05/06 08:17:19;;;;;;;5.60;5.10;;;19.60;99.90;;;;;;5030364;28;20044;-84
2023/05/06 08:19:45;;;;;;;5.18;4.68;;;19.60;99.90;;;;;;5047900;28;20111;-84
2023/05/06 08:22:11;;;;;;;5.45;4.90;;;19.80;99.90;;;;;;5045747;28;20032;-85
2023/05/06 08:24:37;;;;;;;5.78;4.50;;;20.00;99.90;;;;;;5045453;28;20072;-84
2023/05/06 08:27:03;;;;;;;5.20;4.80;;;20.10;99.90;;;;;;5049391;28;20040;-84
2023/05/06 08:29:28;;;;;;;6.90;4.93;;;20.20;99.90;;;;;;5043953;28;20033;-84
2023/05/06 08:31:54;;;;;;;6.13;5.35;;;20.10;99.90;;;;;;5043698;28;20052;-84
2023/05/06 08:34:20;;;;;;;5.65;5.03;;;20.20;99.90;;;;;;5027116;28;20040;-84
2023/05/06 08:36:47;;;;;;;4.20;3.42;;;20.10;99.90;;;;;;5050727;28;20036;-85
2023/05/06 08:39:13;;;;;;;5.50;3.35;;;20.20;99.90;;;;;;5046838;28;20048;-84
2023/05/06 08:41:40;;;;;;;3.75;3.45;;;20.20;99.90;;;;;;5049868;28;20060;-84
2023/05/06 08:44:07;;;;;;;5.53;3.60;;;20.40;99.90;;;;;;5043661;28;20664;-84
2023/05/06 08:46:33;;;;;;;5.22;4.72;;;20.60;99.90;;;;;;5045237;28;20348;-85
2023/05/06 08:48:58;;;;;;;5.10;4.60;;;20.60;99.90;;;;;;5048912;28;20115;-84
2023/05/06 08:51:29;;;;;;;5.13;4.30;;;20.60;99.90;;;;;;5051136;28;20069;-84
2023/05/06 08:53:58;;;;;;;4.82;4.30;;;20.70;99.90;;;;;;5048954;28;20044;-84
2023/05/06 08:56:29;;;;;;;6.45;4.93;;;20.70;99.90;;;;;;5048962;28;20211;-84
2023/05/06 08:58:57;;;;;;;4.22;3.65;;;20.80;99.90;;;;;;5047478;28;20128;-84
2023/05/06 09:01:24;;;;;;;8.48;3.60;;;20.80;99.90;;;;;;5029338;28;20033;-84
2023/05/06 09:03:50;;;;;;;4.30;3.60;;;20.90;99.90;;;;;;5032890;28;20090;-84
2023/05/06 09:06:16;;;;;;;4.70;4.28;;;21.10;99.90;;;;;;5048839;28;20053;-84
2023/05/06 09:08:41;;;;;;;23.48;8.40;;;20.90;99.90;;;;;;5047106;28;20036;-85
2023/05/06 09:11:30;;;;;;;11.20;5.40;;;20.70;99.90;;;;;;5048193;28;20048;-84
2023/05/06 09:14:12;;;;;;;19.58;8.90;;;20.90;99.90;;;;;;5064943;28;20040;-84
2023/05/06 09:16:40;;;;;;;27.92;9.52;;;20.90;99.90;;;;;;5049645;28;20037;-84
2023/05/06 09:19:05;;;;;;;5.18;3.95;;;21.00;99.90;;;;;;5053740;28;20116;-84
2023/05/06 09:21:36;;;;;;;3.78;2.65;;;21.00;99.90;;;;;;5046424;28;20196;-84
2023/05/06 09:24:03;;;;;;;5.70;3.50;;;21.00;99.90;;;;;;5046088;28;20045;-84
2023/05/06 09:26:29;;;;;;;7.65;4.85;;;21.00;99.90;;;;;;5045038;28;20129;-84
2023/05/06 09:28:57;;;;;;;5.03;4.53;;;20.70;99.90;;;;;;5034910;28;20036;-84
2023/05/06 09:31:24;;;;;;;5.65;4.55;;;20.20;99.90;;;;;;5045700;28;20042;-84
2023/05/06 09:33:50;;;;;;;7.75;4.35;;;20.10;99.90;;;;;;5046201;28;20095;-84
2023/05/06 09:36:15;;;;;;;6.68;5.05;;;19.70;99.90;;;;;;5061784;28;20045;-85
2023/05/06 09:38:41;;;;;;;6.00;5.00;;;19.60;99.90;;;;;;5041972;28;20044;-84
2023/05/06 09:41:08;;;;;;;6.28;5.70;;;19.80;99.90;;;;;;5049179;28;20032;-84
2023/05/06 09:43:40;;;;;;;6.57;5.18;;;20.10;99.90;;;;;;5038765;28;20122;-84
2023/05/06 09:46:19;;;;;;;5.32;4.47;;;20.40;99.90;;;;;;5056640;28;20033;-85
2023/05/06 09:48:46;;;;;;;4.85;4.13;;;20.50;99.90;;;;;;5045619;28;20482;-82
2023/05/06 09:51:12;;;;;;;5.97;4.03;;;20.50;99.90;;;;;;5039720;28;20044;-83
2023/05/06 09:53:38;;;;;;;6.45;4.43;;;20.70;99.90;;;;;;5048143;28;20488;-82
2023/05/06 09:56:07;;;;;;;4.90;3.70;;;20.90;99.90;;;;;;5046556;28;20111;-83
2023/05/06 09:58:34;;;;;;;6.40;4.32;;;21.20;99.90;;;;;;5046447;28;20080;-81
2023/05/06 10:01:02;;;;;;;6.32;4.95;;;21.40;99.90;;;;;;5064005;28;20045;-81
2023/05/06 10:03:29;;;;;;;6.30;5.38;;;21.60;99.90;;;;;;5028011;28;20578;-81
2023/05/06 10:05:56;;;;;;;7.60;6.30;;;21.70;99.90;;;;;;5043381;28;20070;-81
2023/05/06 10:08:25;;;;;;;7.72;6.10;;;21.80;99.90;;;;;;5066347;28;20091;-82
2023/05/06 10:10:52;;;;;;;9.25;6.45;;;21.60;99.90;;;;;;5041902;28;20040;-84
2023/05/06 10:13:37;;;;;;;9.63;6.75;;;21.20;99.90;;;;;;5060621;28;20060;-88
2023/05/06 10:16:07;;;;;;;7.68;5.75;;;20.80;99.90;;;;;;5055229;28;20463;-89
2023/05/06 10:18:35;;;;;;;7.57;6.38;;;20.60;99.90;;;;;;5047917;28;20164;-82
2023/05/06 10:21:02;;;;;;;8.05;6.68;;;20.40;99.90;;;;;;5028924;28;20039;-82
2023/05/06 10:23:43;;;;;;;7.07;6.38;;;19.90;99.90;;;;;;5048685;28;20037;-83
2023/05/06 10:26:10;;;;;;;9.88;7.45;;;19.80;99.90;;;;;;5046425;28;20040;-83
2023/05/06 10:28:41;;;;;;;7.32;6.55;;;19.90;99.90;;;;;;5024443;28;20041;-81
2023/05/06 10:31:11;;;;;;;9.80;7.63;;;19.90;99.90;;;;;;5051272;28;20859;-82
2023/05/06 10:33:43;;;;;;;9.45;7.78;;;19.70;99.90;;;;;;5028396;28;20044;-82
2023/05/06 10:36:15;;;;;;;8.63;7.72;;;19.50;99.90;;;;;;5044663;28;20562;-82
2023/05/06 10:38:43;;;;;;;10.25;8.70;;;19.60;99.90;;;;;;5046087;28;20049;-82
2023/05/06 10:41:09;;;;;;;10.15;7.88;;;19.10;99.90;;;;;;5045802;28;20494;-82
2023/05/06 10:43:42;;;;;;;12.75;8.80;;;19.00;99.90;;;;;;5044441;28;20123;-83
2023/05/06 10:46:13;;;;;;;11.57;8.38;;;18.90;99.90;;;;;;5039913;28;20051;-81
2023/05/06 10:49:05;;;;;;;9.82;7.88;;;18.90;99.90;;;;;;5061176;28;20072;-83
2023/05/06 10:51:31;;;;;;;9.63;8.48;;;18.90;99.90;;;;;;5041559;28;20071;-81
2023/05/06 10:54:01;;;;;;;10.00;8.73;;;18.80;99.90;;;;;;5045426;28;20140;-82
2023/05/06 10:56:29;;;;;;;11.02;8.65;;;18.80;99.90;;;;;;5042929;28;20076;-83
2023/05/06 10:58:55;;;;;;;9.18;8.13;;;18.80;99.90;;;;;;5042847;28;20044;-83
2023/05/06 11:01:30;;;;;;;10.48;8.48;;;19.30;99.90;;;;;;5045599;28;20569;-83
2023/05/06 11:03:56;;;;;;;8.82;7.93;;;19.00;99.90;;;;;;5045204;28;20395;-84
2023/05/06 11:06:32;;;;;;;9.90;8.27;;;19.30;99.90;;;;;;5049374;28;20092;-84
2023/05/06 11:09:00;;;;;;;9.20;8.30;;;19.50;99.90;;;;;;5045629;28;20079;-83
2023/05/06 11:11:49;;;;;;;10.38;8.35;;;19.50;99.90;;;;;;5044978;28;20041;-84
2023/05/06 11:14:24;;;;;;;8.75;7.63;;;19.50;99.90;;;;;;5067071;28;20037;-84
2023/05/06 11:16:51;;;;;;;10.55;8.15;;;19.50;99.90;;;;;;5044638;28;20041;-82
2023/05/06 11:19:26;;;;;;;8.55;7.57;;;19.50;99.90;;;;;;5048904;28;20029;-82
2023/05/06 11:21:57;;;;;;;8.73;7.82;;;19.50;99.90;;;;;;5046659;28;20113;-81
2023/05/06 11:24:30;;;;;;;9.57;8.50;;;19.50;99.90;;;;;;5043417;28;20069;-82
2023/05/06 11:26:58;;;;;;;10.50;7.70;;;19.40;99.90;;;;;;5063039;28;20488;-82
2023/05/06 11:29:25;;;;;;;8.77;7.68;;;19.30;99.90;;;;;;5045147;28;20075;-81
2023/05/06 11:31:54;;;;;;;13.13;7.38;;;19.20;99.90;;;;;;5042182;28;20052;-82
2023/05/06 11:34:22;;;;;;;11.70;8.43;;;19.20;99.90;;;;;;5045598;28;20511;-81
2023/05/06 11:36:57;;;;;;;12.80;7.55;;;19.10;99.90;;;;;;5042702;28;20407;-81
2023/05/06 11:39:29;;;;;;;10.45;9.07;;;19.10;99.90;;;;;;5059970;28;20037;-81
2023/05/06 11:41:57;;;;;;;11.23;8.15;;;19.10;99.90;;;;;;5043486;28;20151;-81
2023/05/06 11:44:27;;;;;;;9.40;7.95;;;19.20;99.90;;;;;;5043014;28;20284;-81
2023/05/06 11:47:03;;;;;;;9.60;7.50;;;19.20;99.90;;;;;;5042971;28;20053;-81
2023/05/06 11:49:29;;;;;;;11.80;8.52;;;19.30;99.90;;;;;;5041514;28;20040;-81
2023/05/06 11:51:55;;;;;;;9.02;7.57;;;19.40;99.90;;;;;;5042649;28;20060;-81
2023/05/06 11:54:22;;;;;;;8.88;8.10;;;19.50;99.90;;;;;;5077156;28;20067;-81
2023/05/06 11:56:53;;;;;;;10.63;8.23;;;19.30;99.90;;;;;;5041631;28;20045;-81
2023/05/06 11:59:27;;;;;;;11.05;7.97;;;19.20;99.90;;;;;;5039433;28;20044;-81
2023/05/06 12:01:53;;;;;;;10.97;8.40;;;19.20;99.90;;;;;;5045074;28;20380;-81
2023/05/06 12:04:18;;;;;;;9.10;8.10;;;19.10;99.90;;;;;;5043102;28;20295;-81
2023/05/06 12:06:45;;;;;;;8.75;7.65;;;19.10;99.90;;;;;;5043144;28;20045;-80
2023/05/06 12:09:11;;;;;;;9.05;8.15;;;19.00;99.90;;;;;;5044543;28;20391;-81
2023/05/06 12:11:39;;;;;;;11.27;8.15;;;19.00;99.90;;;;;;5041083;28;20399;-81
2023/05/06 12:14:07;;;;;;;8.15;7.30;;;18.80;99.90;;;;;;5042607;28;20041;-82
2023/05/06 12:16:34;;;;;;;7.85;7.05;;;18.80;99.90;;;;;;5041365;28;20047;-81
2023/05/06 12:19:01;;;;;;;11.60;8.75;;;18.90;99.90;;;;;;5026897;28;20128;-83
2023/05/06 12:21:27;;;;;;;11.13;8.00;;;18.80;99.90;;;;;;5029455;28;20045;-84
2023/05/06 12:24:00;;;;;;;8.68;7.82;;;18.80;99.90;;;;;;5040658;28;20064;-84
2023/05/06 12:26:26;;;;;;;11.52;7.30;;;18.80;99.90;;;;;;5053765;28;20040;-83
2023/05/06 12:29:07;;;;;;;10.38;8.80;;;18.90;99.90;;;;;;5038506;28;20045;-83
2023/05/06 12:31:33;;;;;;;9.07;8.10;;;19.10;99.90;;;;;;5039019;28;20041;-83
2023/05/06 12:33:59;;;;;;;12.77;7.88;;;19.20;99.90;;;;;;5039414;28;20048;-83
2023/05/06 12:36:24;;;;;;;8.55;7.60;;;19.40;99.90;;;;;;5038640;28;20590;-84
2023/05/06 12:38:55;;;;;;;9.43;6.65;;;19.50;99.90;;;;;;5052648;28;20507;-83
2023/05/06 12:41:22;;;;;;;8.73;5.88;;;19.40;99.90;;;;;;5051873;28;20060;-84
2023/05/06 12:43:47;;;;;;;8.90;6.55;;;19.50;99.90;;;;;;5038692;28;20083;-84
2023/05/06 12:46:15;;;;;;;6.95;6.22;;;19.80;99.90;;;;;;5035853;28;20052;-83